createdAt,value
2016-04-20T11:45:45.345Z,14.52
2016-04-20T11:46:45.269Z,14.46
2016-04-20T11:47:45.224Z,14.46
2016-04-20T11:48:45.243Z,14.65
2016-04-20T11:49:45.073Z,15.23
2016-04-20T11:50:44.936Z,15.36
2016-04-20T11:51:45.048Z,15.26
2016-04-20T11:52:45.003Z,15.01
2016-04-20T11:53:45.038Z,14.91
2016-04-20T11:54:45.134Z,14.74
2016-04-20T11:55:45.058Z,14.84
2016-04-20T11:56:45.061Z,14.95
2016-04-20T11:57:45.079Z,15.03
2016-04-20T11:58:45.035Z,15.24
2016-04-20T11:59:45.226Z,16.04
2016-04-20T12:00:46.213Z,17.2
2016-04-20T12:01:44.872Z,17.69
2016-04-20T12:02:44.812Z,17.63
2016-04-20T12:03:45.579Z,17.22
2016-04-20T12:04:44.738Z,16.78
2016-04-20T12:05:44.758Z,16.58
2016-04-20T12:06:44.869Z,16.44
2016-04-20T12:07:44.888Z,16.38
2016-04-20T12:08:43.874Z,16.31
2016-04-20T12:09:44.674Z,16.6
2016-04-20T12:10:46.161Z,17.67
2016-04-20T12:11:44.726Z,19.57
2016-04-20T12:12:58.842Z,22.1
2016-04-20T12:13:44.529Z,23.67
2016-04-20T12:14:44.595Z,24.07
2016-04-20T12:15:44.534Z,22.82
2016-04-20T12:16:44.880Z,21.35
2016-04-20T12:17:44.415Z,20.33
2016-04-20T12:18:44.434Z,19.61
2016-04-20T12:19:44.404Z,19.35
2016-04-20T12:20:44.720Z,18.98
2016-04-20T12:21:44.347Z,18.76
2016-04-20T12:22:44.319Z,18.55
2016-04-20T12:23:44.431Z,18.34
2016-04-20T12:24:44.355Z,18.28
2016-04-20T12:25:43.545Z,18.28
2016-04-20T12:26:44.313Z,18.54
2016-04-20T12:27:44.207Z,18.7
2016-04-20T12:28:44.241Z,18.91
2016-04-20T12:29:44.150Z,19.72
2016-04-20T12:30:44.324Z,21.04
2016-04-20T12:31:44.250Z,21.48
2016-04-20T12:32:44.126Z,20.8
2016-04-20T12:33:44.082Z,20
2016-04-20T12:34:44.319Z,19.31
2016-04-20T12:35:44.166Z,18.98
2016-04-20T12:36:44.216Z,18.79
2016-04-20T12:37:44.047Z,18.61
2016-04-20T12:38:43.971Z,18.37
2016-04-20T12:39:44.052Z,18.04
2016-04-20T12:40:43.961Z,17.89
2016-04-20T12:41:44.543Z,17.69
2016-04-20T12:42:44.045Z,17.53
2016-04-20T12:43:43.890Z,17.4
2016-04-20T12:44:43.925Z,17.2
2016-04-20T12:45:43.818Z,17.1
2016-04-20T12:46:45.587Z,16.98
2016-04-20T12:47:43.777Z,16.93
2016-04-20T12:48:43.826Z,16.83
2016-04-20T12:49:43.939Z,16.81
2016-04-20T12:50:43.753Z,16.67
2016-04-20T12:51:43.756Z,16.63
2016-04-20T12:52:44.197Z,16.5
2016-04-20T12:53:43.667Z,16.48
2016-04-20T12:55:44.439Z,16.4
2016-04-20T12:56:43.786Z,16.34
2016-04-20T12:57:43.631Z,16.44
2016-04-20T12:58:43.634Z,16.83
2016-04-20T12:59:43.497Z,17.53
2016-04-20T13:00:43.686Z,17.85
2016-04-20T13:01:57.316Z,17.38
2016-04-20T13:02:43.473Z,17.33
2016-04-20T13:03:43.477Z,17.2
2016-04-20T13:04:43.494Z,17.1
2016-04-20T13:05:43.685Z,17.06
2016-04-20T13:06:43.468Z,16.95
2016-04-20T13:07:43.471Z,16.95
2016-04-20T13:08:43.349Z,17.04
2016-04-20T13:09:43.289Z,17.07
2016-04-20T13:10:43.307Z,16.96
2016-04-20T13:11:43.762Z,17
2016-04-20T13:12:43.843Z,16.83
2016-04-20T13:13:43.253Z,16.81
2016-04-20T13:15:43.446Z,16.89
2016-04-20T13:16:56.995Z,16.95
2016-04-20T13:17:43.357Z,17.17
2016-04-20T13:18:43.204Z,17.99
2016-04-20T13:19:43.206Z,18.13
2016-04-20T13:20:43.115Z,18.15
2016-04-20T13:21:43.384Z,18.09
2016-04-20T13:22:43.167Z,18.27
2016-04-20T13:23:42.967Z,19.05
2016-04-20T13:24:42.985Z,20.28
2016-04-20T13:25:43.456Z,20.62
2016-04-20T13:26:43.131Z,20.24
2016-04-20T13:27:43.744Z,20.1
2016-04-20T13:28:43.340Z,20.09
2016-04-20T13:29:42.921Z,20.25
2016-04-20T13:30:56.720Z,21.67
2016-04-20T13:31:42.910Z,22.13
2016-04-20T13:32:42.820Z,22.17
2016-04-20T13:33:42.838Z,21.91
2016-04-20T13:34:42.669Z,21.13
2016-04-20T13:35:42.718Z,20.64
2016-04-20T13:36:42.611Z,20.42
2016-04-20T13:37:42.801Z,20.18
2016-04-20T13:38:42.867Z,20.02
2016-04-20T13:39:42.619Z,20.27
2016-04-20T13:40:42.685Z,21.32
2016-04-20T13:41:42.579Z,21.27
2016-04-20T13:42:42.518Z,22.32
2016-04-20T13:43:42.458Z,25.06
2016-04-20T13:44:42.587Z,28.53
2016-04-20T13:45:42.823Z,29.55
2016-04-20T13:46:42.420Z,30.15
2016-04-20T13:47:42.469Z,30.5
2016-04-20T13:48:42.441Z,30.78
2016-04-20T13:49:42.490Z,33.08
2016-04-20T13:50:42.524Z,35.03
2016-04-20T13:51:42.401Z,36.72
2016-04-20T13:52:42.734Z,37.67
2016-04-20T13:53:42.439Z,38.36
2016-04-20T13:54:42.347Z,39.74
2016-04-20T13:55:42.506Z,40.72
2016-04-20T13:56:42.587Z,40.52
2016-04-20T13:57:42.605Z,39.25
2016-04-20T13:58:42.500Z,39.1
2016-04-20T13:59:42.330Z,39.71
2016-04-20T14:00:42.364Z,40.76
2016-04-20T14:01:42.195Z,40.43
2016-04-20T14:02:42.150Z,41.4
2016-04-20T14:03:42.341Z,43.45
2016-04-20T14:04:42.140Z,44.93
2016-04-20T14:05:42.330Z,45.85
2016-04-20T14:06:42.160Z,46.76
2016-04-20T14:07:42.133Z,47.39
2016-04-20T14:08:42.072Z,47.67
2016-04-20T14:09:42.091Z,48.12
2016-04-20T14:10:42.110Z,48.43
2016-04-20T14:11:42.346Z,48.59
2016-04-20T14:12:42.083Z,48.43
2016-04-20T14:13:42.040Z,48.12
2016-04-20T14:14:42.011Z,47.45
2016-04-20T14:15:41.998Z,47.09
2016-04-20T14:16:42.047Z,46.75
2016-04-20T14:17:41.878Z,46.34
2016-04-20T14:18:41.896Z,45.56
2016-04-20T14:19:42.243Z,45.21
2016-04-20T14:21:41.748Z,44.33
2016-04-20T14:22:41.033Z,45.71
2016-04-20T14:23:41.895Z,46.63
2016-04-20T14:24:41.866Z,46.7
2016-04-20T14:25:41.823Z,46.41
2016-04-20T14:26:42.013Z,46.25
2016-04-20T14:27:41.812Z,46.97
2016-04-20T14:28:41.987Z,47.28
2016-04-20T14:29:42.677Z,46.68
2016-04-20T14:30:42.337Z,46.5
2016-04-20T14:31:42.995Z,46.6
2016-04-20T14:32:41.841Z,46.75
2016-04-20T14:33:40.922Z,46.54
2016-04-20T14:34:41.847Z,46.63
2016-04-20T14:35:41.725Z,46.91
2016-04-20T14:36:43.289Z,46.73
2016-04-20T14:37:41.855Z,46.94
2016-04-20T14:38:41.733Z,47.42
2016-04-20T14:39:41.845Z,47.75
2016-04-20T14:40:41.613Z,48.03
2016-04-20T14:41:41.647Z,48.2
2016-04-20T14:42:41.587Z,48.25
2016-04-20T14:43:42.183Z,48.33
2016-04-20T14:44:41.795Z,48.46
2016-04-20T14:45:41.705Z,48.37
2016-04-20T14:46:41.614Z,48.53
2016-04-20T14:47:41.569Z,48.53
2016-04-20T14:48:41.556Z,48.56
2016-04-20T14:49:41.638Z,48.43
2016-04-20T14:50:41.811Z,48.43
2016-04-20T14:51:41.752Z,48.36
2016-04-20T14:52:41.520Z,48.21
2016-04-20T14:53:41.679Z,48.18
2016-04-20T14:54:41.994Z,47.9
2016-04-20T14:55:41.513Z,47.8
2016-04-20T14:56:41.874Z,47.62
2016-04-20T14:57:41.596Z,47.37
2016-04-20T14:58:41.646Z,47.2
2016-04-20T14:59:41.977Z,47.04
2016-04-20T15:00:41.854Z,46.76
2016-04-20T15:01:41.466Z,46.31
2016-04-20T15:02:41.468Z,45.66
2016-04-20T15:03:41.534Z,45.64
2016-04-20T15:04:41.552Z,45.72
2016-04-20T15:05:40.898Z,45.18
2016-04-20T15:06:41.854Z,44.47
2016-04-20T15:07:41.857Z,43.99
2016-04-20T15:08:41.423Z,43.04
2016-04-20T15:09:41.457Z,42.2
2016-04-20T15:10:41.631Z,41.06
2016-04-20T15:11:41.525Z,40.52
2016-04-20T15:12:41.589Z,40.11
2016-04-20T15:13:41.405Z,39.18
